Time;durP1;ratioP1;P1;durP2;ratioP2;P2;SDS_P1;SDS_P2;PMS_P1;PMS_P2;Temp;Humidity;BMP_temperature;BMP_pressure;BME280_temperature;BME280_humidity;BME280_pressure;Samples;Min_cycle;Max_cycle;Signal;HPM_P1;HPM_P2
2023/04/05 00:02:09;;;;;;;1.70;1.58;;;;;;;-1.04;72.43;98172.69;5020463;28;20088;-72
2023/04/05 00:04:41;;;;;;;2.28;1.60;;;;;;;-1.07;72.46;98157.19;5025462;28;20103;-72
2023/04/05 00:07:11;;;;;;;2.28;1.60;;;;;;;-0.87;71.42;98169.72;5020730;28;20092;-72
2023/04/05 00:09:38;;;;;;;1.48;1.30;;;;;;;-1.15;72.61;98157.75;5021515;28;20057;-72
2023/04/05 00:12:06;;;;;;;2.03;1.70;;;;;;;-1.18;73.11;98154.50;5029709;28;20041;-73
2023/04/05 00:14:35;;;;;;;2.45;2.25;;;;;;;-1.16;72.09;98153.44;5029289;28;20405;-72
2023/04/05 00:17:03;;;;;;;3.97;1.88;;;;;;;-1.09;71.87;98159.06;5023614;28;20053;-72
2023/04/05 00:19:32;;;;;;;1.48;1.38;;;;;;;-1.37;74.13;98147.09;5025885;28;20041;-72
2023/04/05 00:22:00;;;;;;;2.15;1.50;;;;;;;-1.20;72.42;98162.44;5024437;28;20061;-72
2023/04/05 00:24:28;;;;;;;2.13;1.50;;;;;;;-1.08;72.41;98162.53;5027846;28;20509;-72
2023/04/05 00:26:56;;;;;;;1.50;1.38;;;;;;;-1.13;72.56;98153.22;5033315;28;20045;-72
2023/04/05 00:29:24;;;;;;;2.63;1.48;;;;;;;-1.12;72.05;98152.25;5036794;28;20038;-71
2023/04/05 00:31:53;;;;;;;2.08;1.40;;;;;;;-1.29;73.47;98150.00;5029384;28;20041;-71
2023/04/05 00:34:21;;;;;;;1.70;1.30;;;;;;;-1.30;72.85;98150.94;5025873;28;20049;-73
2023/04/05 00:36:48;;;;;;;1.63;1.33;;;;;;;-1.35;73.50;98144.38;5023947;28;20045;-70
2023/04/05 00:39:16;;;;;;;3.20;1.48;;;;;;;-1.42;74.18;98153.56;5024403;28;20103;-70
2023/04/05 00:41:44;;;;;;;1.50;1.40;;;;;;;-1.49;74.32;98151.41;5019434;28;20037;-70
2023/04/05 00:44:15;;;;;;;1.63;1.52;;;;;;;-1.55;74.28;98143.94;5027386;28;20095;-70
2023/04/05 00:46:43;;;;;;;2.22;2.03;;;;;;;-1.57;74.53;98142.41;5024204;28;20160;-70
2023/04/05 00:49:12;;;;;;;1.63;1.30;;;;;;;-1.49;73.83;98133.06;5024008;28;20523;-71
2023/04/05 00:51:40;;;;;;;1.58;1.48;;;;;;;-1.52;74.21;98137.69;5021844;28;20072;-71
2023/04/05 00:54:10;;;;;;;1.58;1.38;;;;;;;-1.40;73.06;98141.22;5016342;28;20484;-71
2023/04/05 00:56:38;;;;;;;1.83;1.65;;;;;;;-1.47;73.72;98143.44;5029005;28;20079;-71
2023/04/05 00:59:06;;;;;;;1.70;1.23;;;;;;;-1.68;74.60;98129.22;5025638;28;20087;-71
2023/04/05 01:01:36;;;;;;;1.67;1.45;;;;;;;-1.68;74.72;98124.00;5018503;28;20060;-71
2023/04/05 01:04:06;;;;;;;1.55;1.30;;;;;;;-1.69;75.06;98128.38;5024867;28;20061;-73
2023/04/05 01:06:46;;;;;;;2.20;1.42;;;;;;;-1.69;74.63;98128.38;5024522;28;20069;-70
2023/04/05 01:09:22;;;;;;;1.98;1.50;;;;;;;-1.63;74.02;98127.94;5023989;28;20128;-70
2023/04/05 01:11:51;;;;;;;1.60;1.38;;;;;;;-1.54;73.45;98123.84;5041207;22;20041;-75
2023/04/05 01:14:19;;;;;;;1.50;1.40;;;;;;;-1.70;74.63;98131.94;5026999;28;20045;-74
2023/04/05 01:16:48;;;;;;;1.35;1.25;;;;;;;-1.61;73.68;98123.44;5024464;28;20046;-74
2023/04/05 01:19:16;;;;;;;1.33;1.23;;;;;;;-1.62;73.73;98126.16;5025885;28;20049;-75
2023/04/05 01:22:13;;;;;;;1.80;1.35;;;;;;;-1.66;74.12;98129.97;5009438;28;20492;-75
2023/04/05 01:24:49;;;;;;;;;;;;;;;-1.65;73.85;98113.28;5006324;28;20468;-75
2023/04/05 01:27:19;;;;;;;2.08;1.10;;;;;;;-1.44;72.78;98124.88;5005870;28;19964;-75
2023/04/05 01:29:51;;;;;;;1.13;0.90;;;;;;;-1.53;73.34;98125.53;5002499;28;20046;-76
2023/04/05 01:32:26;;;;;;;1.95;1.23;;;;;;;-1.52;72.78;98119.34;5005096;28;20144;-76
2023/04/05 01:35:02;;;;;;;1.15;1.05;;;;;;;-1.73;73.82;98116.44;5001284;28;20046;-75
2023/04/05 01:37:32;;;;;;;1.30;1.00;;;;;;;-1.81;74.15;98112.69;5003468;28;20069;-74
2023/04/05 01:40:00;;;;;;;1.40;1.30;;;;;;;-1.87;75.15;98116.56;5003517;28;20053;-74
2023/04/05 01:42:28;;;;;;;1.08;0.98;;;;;;;-1.88;75.31;98115.72;5008001;28;20042;-74
2023/04/05 01:44:57;;;;;;;1.45;1.35;;;;;;;-1.89;75.40;98108.81;5007236;28;20413;-75
2023/04/05 01:47:25;;;;;;;1.35;1.17;;;;;;;-1.87;75.24;98108.72;5006273;28;20095;-74
2023/04/05 01:49:52;;;;;;;1.70;0.90;;;;;;;-1.92;74.84;98114.25;5002445;28;20042;-76
2023/04/05 01:52:21;;;;;;;1.10;1.00;;;;;;;-2.05;75.73;98109.94;5008565;28;20108;-76
2023/04/05 01:54:49;;;;;;;0.80;0.80;;;;;;;-2.05;75.80;98110.78;5006276;28;20358;-74
2023/04/05 01:57:17;;;;;;;0.75;0.75;;;;;;;-2.08;75.75;98105.78;5004780;28;20092;-76
2023/04/05 01:59:45;;;;;;;0.80;0.80;;;;;;;-2.17;76.02;98100.31;5008593;28;20208;-76
2023/04/05 02:02:14;;;;;;;1.70;1.08;;;;;;;-2.18;76.07;98101.28;5003973;28;20416;-75
2023/04/05 02:04:42;;;;;;;0.90;0.65;;;;;;;-2.15;76.01;98104.50;5008817;28;20096;-75
2023/04/05 02:07:09;;;;;;;1.27;1.00;;;;;;;-2.09;75.57;98106.72;5012029;28;20770;-76
2023/04/05 02:09:37;;;;;;;0.70;0.70;;;;;;;-2.07;75.19;98109.22;5005644;28;20065;-74
2023/04/05 02:12:05;;;;;;;1.13;1.02;;;;;;;-1.98;74.83;98100.78;5010881;28;20421;-76
2023/04/05 02:14:32;;;;;;;0.93;0.90;;;;;;;-2.05;75.05;98104.72;5015799;28;20037;-75
2023/04/05 02:17:02;;;;;;;0.77;0.77;;;;;;;-1.95;74.53;98098.75;5012888;28;20033;-76
2023/04/05 02:19:36;;;;;;;0.98;0.98;;;;;;;-1.92;73.92;98093.34;5007112;28;20057;-75
2023/04/05 02:22:03;;;;;;;0.95;0.80;;;;;;;-2.13;75.30;98105.25;5006137;28;20422;-74
2023/04/05 02:24:31;;;;;;;0.60;0.60;;;;;;;-2.18;75.84;98101.28;5009227;28;20108;-76
2023/04/05 02:26:58;;;;;;;1.02;0.70;;;;;;;-2.12;75.15;98096.47;5008404;28;20053;-75
2023/04/05 02:29:26;;;;;;;0.77;0.77;;;;;;;-2.07;74.56;98099.59;5005448;28;20047;-75
2023/04/05 02:31:53;;;;;;;0.60;0.60;;;;;;;-2.08;74.46;98104.94;5007781;28;20086;-75
2023/04/05 02:34:22;;;;;;;0.70;0.70;;;;;;;-2.18;75.28;98099.47;5005987;28;20060;-75
2023/04/05 02:36:51;;;;;;;2.45;1.00;;;;;;;-2.21;74.89;98102.31;5010171;28;20501;-75
2023/04/05 02:39:19;;;;;;;1.02;1.00;;;;;;;-2.07;74.06;98104.81;5006428;28;20056;-75
2023/04/05 02:41:47;;;;;;;1.08;0.90;;;;;;;-2.10;74.11;98101.59;5019601;28;20046;-75
2023/04/05 02:44:14;;;;;;;0.65;0.63;;;;;;;-2.08;73.76;98097.09;5011137;28;20104;-75
2023/04/05 02:46:42;;;;;;;1.05;0.95;;;;;;;-2.27;74.77;98094.88;5006989;28;20050;-75
2023/04/05 02:49:10;;;;;;;0.80;0.80;;;;;;;-2.36;75.65;98096.31;5007771;28;20100;-75
2023/04/05 02:51:38;;;;;;;0.68;0.68;;;;;;;-2.41;75.93;98097.59;5004181;28;20056;-75
2023/04/05 02:54:10;;;;;;;0.73;0.70;;;;;;;-2.39;75.30;98095.72;5009402;28;20080;-74
2023/04/05 02:56:38;;;;;;;0.80;0.70;;;;;;;-2.48;75.98;98091.91;5005287;28;20042;-74
2023/04/05 02:59:12;;;;;;;;;;;;;;;-2.36;74.84;98093.72;5010322;28;20054;-74
2023/04/05 03:01:43;;;;;;;1.02;0.85;;;;;;;-2.43;75.57;98096.84;4999551;28;20000;-74
2023/04/05 03:04:19;;;;;;;1.52;1.52;;;;;;;-2.52;75.68;98100.06;5003925;28;20490;-75
2023/04/05 03:06:49;;;;;;;0.70;0.70;;;;;;;-2.56;76.25;98093.34;5012825;28;20045;-75
2023/04/05 03:09:21;;;;;;;0.60;0.60;;;;;;;-2.60;76.27;98095.34;5008735;28;20217;-74
2023/04/05 03:11:52;;;;;;;0.98;0.90;;;;;;;-2.65;76.48;98090.41;5010602;28;20052;-76
2023/04/05 03:14:20;;;;;;;1.52;0.90;;;;;;;-2.62;76.77;98090.22;5006700;28;20042;-74
2023/04/05 03:16:49;;;;;;;1.48;1.38;;;;;;;-2.71;76.93;98095.22;5006701;28;20064;-74
2023/04/05 03:19:24;;;;;;;0.93;0.93;;;;;;;-2.75;76.91;98086.72;5005792;28;20528;-74
2023/04/05 03:21:58;;;;;;;1.10;0.93;;;;;;;-2.78;77.42;98084.31;5006299;28;20047;-75
2023/04/05 03:24:32;;;;;;;0.60;0.60;;;;;;;-2.77;77.33;98085.16;5009763;28;20042;-74
2023/04/05 03:27:04;;;;;;;0.73;0.73;;;;;;;-2.71;76.46;98080.38;5002293;28;20408;-75
2023/04/05 03:29:38;;;;;;;0.70;0.70;;;;;;;-2.94;77.61;98070.59;5002390;28;20520;-74
2023/04/05 03:32:12;;;;;;;1.52;1.50;;;;;;;-2.94;77.96;98077.59;5007590;28;20418;-75
2023/04/05 03:34:46;;;;;;;1.52;0.65;;;;;;;-2.90;77.34;98068.59;5008149;28;20552;-75
2023/04/05 03:37:16;;;;;;;0.70;0.70;;;;;;;-2.92;77.27;98078.31;5007924;28;20050;-75
2023/04/05 03:39:50;;;;;;;1.02;0.70;;;;;;;-2.95;77.51;98074.13;5009105;28;20069;-75
2023/04/05 03:42:19;;;;;;;0.65;0.65;;;;;;;-2.71;76.38;98079.53;5007376;28;20049;-75
2023/04/05 03:44:50;;;;;;;2.05;0.75;;;;;;;-2.72;76.24;98077.88;5007505;28;20042;-74
2023/04/05 03:47:17;;;;;;;0.70;0.70;;;;;;;-2.85;76.86;98093.50;5004175;28;20046;-74
2023/04/05 03:49:45;;;;;;;0.80;0.70;;;;;;;-2.85;76.99;98087.44;5009200;28;20077;-76
2023/04/05 03:52:12;;;;;;;0.52;0.52;;;;;;;-2.89;77.36;98089.38;5006750;28;20478;-77
2023/04/05 03:54:44;;;;;;;0.55;0.55;;;;;;;-2.91;77.14;98080.00;5008504;28;20049;-75
2023/04/05 03:57:16;;;;;;;0.65;0.60;;;;;;;-2.96;77.54;98086.34;5016155;28;20069;-75
2023/04/05 03:59:45;;;;;;;0.70;0.70;;;;;;;-2.98;77.27;98084.75;5006475;28;20050;-74
2023/04/05 04:02:14;;;;;;;1.05;0.70;;;;;;;-3.09;77.86;98085.44;5002860;28;20100;-77
2023/04/05 04:04:42;;;;;;;0.52;0.52;;;;;;;-3.10;77.79;98080.31;5005747;28;20053;-74
2023/04/05 04:07:10;;;;;;;0.93;0.70;;;;;;;-3.08;77.94;98081.91;5007081;28;20093;-77
2023/04/05 04:09:38;;;;;;;0.75;0.75;;;;;;;-2.92;77.17;98084.38;5005075;28;20528;-76
2023/04/05 04:12:09;;;;;;;0.60;0.60;;;;;;;-2.94;77.29;98077.59;5006406;28;20100;-75
2023/04/05 04:14:44;;;;;;;0.75;0.75;;;;;;;-2.99;77.99;98085.69;5007049;28;20044;-75
2023/04/05 04:17:27;;;;;;;1.02;1.02;;;;;;;-2.93;77.27;98089.69;5007040;28;20037;-75
2023/04/05 04:20:20;;;;;;;0.98;0.60;;;;;;;-2.92;77.59;98087.00;5003923;28;20054;-74
2023/04/05 04:23:08;;;;;;;1.52;1.42;;;;;;;-2.84;76.55;98089.94;5009833;28;20460;-74
2023/04/05 04:25:54;;;;;;;0.93;0.70;;;;;;;-2.77;75.94;98086.00;5005518;28;20517;-75
2023/04/05 04:28:45;;;;;;;0.73;0.73;;;;;;;-2.96;76.94;98095.94;4998108;28;20081;-75
2023/04/05 04:31:24;;;;;;;0.60;0.60;;;;;;;-2.96;77.20;98093.34;5020375;28;20151;-75
2023/04/05 04:34:04;;;;;;;0.80;0.80;;;;;;;-2.87;76.89;98084.91;4999048;28;20043;-74
2023/04/05 04:37:00;;;;;;;0.60;0.60;;;;;;;-2.73;76.24;98089.25;5015817;28;20552;-74
2023/04/05 04:39:47;;;;;;;1.13;0.80;;;;;;;-2.67;75.53;98092.28;5016662;28;20056;-74
2023/04/05 04:42:32;;;;;;;0.98;0.55;;;;;;;-2.89;76.29;98093.78;5005270;28;20047;-74
2023/04/05 04:45:38;;;;;;;0.50;0.50;;;;;;;-3.02;77.24;98099.81;5003569;28;20055;-74
2023/04/05 04:48:22;;;;;;;0.77;0.52;;;;;;;-3.03;77.51;98089.47;5006591;28;20060;-74
2023/04/05 04:50:57;;;;;;;0.70;0.70;;;;;;;-3.11;77.36;98086.47;5001244;28;20164;-76
2023/04/05 04:53:27;;;;;;;0.57;0.52;;;;;;;-3.13;77.71;98089.22;5004982;28;20104;-74
2023/04/05 04:55:56;;;;;;;0.50;0.50;;;;;;;-3.16;77.78;98097.22;5004859;28;20572;-74
2023/04/05 04:58:23;;;;;;;0.77;0.70;;;;;;;-3.23;78.31;98095.09;5003346;28;20042;-73
2023/04/05 05:01:00;;;;;;;0.70;0.70;;;;;;;-3.26;78.49;98090.06;5002077;28;20050;-74
2023/04/05 05:03:29;;;;;;;2.20;0.70;;;;;;;-3.26;78.14;98090.91;5003441;28;20049;-74
2023/04/05 05:05:57;;;;;;;0.50;0.50;;;;;;;-3.29;78.51;98087.66;5003376;28;20558;-76
2023/04/05 05:08:30;;;;;;;0.65;0.65;;;;;;;-3.06;77.83;98097.47;5003917;28;20045;-74
2023/04/05 05:10:57;;;;;;;0.70;0.70;;;;;;;-3.10;78.59;98098.59;5001325;28;20101;-75
2023/04/05 05:13:25;;;;;;;0.90;0.60;;;;;;;-3.03;78.74;98095.53;5008659;28;20109;-75
2023/04/05 05:15:53;;;;;;;0.43;0.40;;;;;;;-2.94;78.36;98098.47;5001131;28;20039;-75
2023/04/05 05:18:24;;;;;;;0.40;0.40;;;;;;;-2.89;78.19;98092.00;5003615;28;20054;-74
2023/04/05 05:20:53;;;;;;;0.52;0.52;;;;;;;-2.78;77.98;98086.91;5006338;28;20042;-75
2023/04/05 05:23:20;;;;;;;0.60;0.60;;;;;;;-2.73;77.22;98092.69;5013119;28;20055;-79
2023/04/05 05:25:48;;;;;;;0.50;0.50;;;;;;;-2.66;77.37;98090.50;5007563;28;20042;-74
2023/04/05 05:28:16;;;;;;;1.40;0.73;;;;;;;-2.73;77.85;98082.25;5011129;28;20057;-75
2023/04/05 05:30:44;;;;;;;0.80;0.75;;;;;;;-2.76;77.61;98087.66;5009114;28;20053;-74
2023/04/05 05:33:11;;;;;;;0.80;0.80;;;;;;;-2.75;77.81;98085.88;5008633;28;20034;-74
2023/04/05 05:35:41;;;;;;;0.60;0.60;;;;;;;-2.69;77.80;98083.72;5009356;28;20155;-75
2023/04/05 05:38:10;;;;;;;0.90;0.65;;;;;;;-2.64;77.14;98086.88;5009734;28;20056;-76
2023/04/05 05:40:40;;;;;;;0.60;0.60;;;;;;;-2.65;77.27;98086.97;5005648;28;20130;-74
2023/04/05 05:43:09;;;;;;;0.73;0.73;;;;;;;-2.64;77.59;98094.72;5003434;28;20394;-75
2023/04/05 05:45:37;;;;;;;0.50;0.50;;;;;;;-2.52;77.73;98089.63;5010630;28;20045;-74
2023/04/05 05:48:04;;;;;;;0.80;0.80;;;;;;;-2.33;76.42;98090.91;5010104;28;20128;-75
2023/04/05 05:50:32;;;;;;;0.57;0.47;;;;;;;-2.38;76.59;98089.50;5009179;28;20053;-76
2023/04/05 05:53:00;;;;;;;0.60;0.60;;;;;;;-2.41;76.95;98087.97;5010057;28;20101;-75
2023/04/05 05:55:29;;;;;;;0.60;0.60;;;;;;;-2.30;77.34;98097.72;5011050;28;20104;-74
2023/04/05 05:57:57;;;;;;;0.50;0.50;;;;;;;-2.26;76.31;98101.78;5010254;28;20112;-74
2023/04/05 06:00:24;;;;;;;0.60;0.60;;;;;;;-2.28;76.40;98088.81;5013024;28;20042;-75
2023/04/05 06:02:52;;;;;;;0.60;0.60;;;;;;;-2.33;76.66;98088.28;5011419;28;20490;-75
2023/04/05 06:05:20;;;;;;;0.65;0.65;;;;;;;-2.35;76.70;98086.72;5011096;28;20092;-74
2023/04/05 06:07:47;;;;;;;0.73;0.73;;;;;;;-2.34;76.96;98088.38;5012632;28;20120;-76
2023/04/05 06:10:15;;;;;;;0.60;0.60;;;;;;;-2.39;77.34;98087.88;5009098;28;20045;-77
2023/04/05 06:12:44;;;;;;;0.65;0.65;;;;;;;-2.30;76.79;98085.47;5017420;28;20042;-75
2023/04/05 06:15:11;;;;;;;0.80;0.80;;;;;;;-2.10;75.86;98086.75;5010523;28;20461;-74
2023/04/05 06:17:41;;;;;;;0.90;0.90;;;;;;;-2.04;75.43;98088.94;5005329;28;20046;-75
2023/04/05 06:20:10;;;;;;;0.80;0.80;;;;;;;-2.00;75.65;98097.41;5000522;28;20046;-75
2023/04/05 06:22:39;;;;;;;1.15;1.15;;;;;;;-2.01;75.80;98091.34;5001824;28;20420;-74
2023/04/05 06:25:08;;;;;;;1.00;0.60;;;;;;;-1.98;75.99;98096.38;5007324;28;20046;-75
2023/04/05 06:27:35;;;;;;;0.60;0.60;;;;;;;-1.94;75.77;98089.13;5012810;28;20039;-74
2023/04/05 06:30:05;;;;;;;0.93;0.88;;;;;;;-1.82;75.76;98092.69;5004009;28;20468;-74
2023/04/05 06:32:33;;;;;;;0.80;0.80;;;;;;;-1.77;75.58;98094.06;5006818;28;20037;-75
2023/04/05 06:35:02;;;;;;;0.82;0.73;;;;;;;-1.70;75.80;98082.22;5009411;28;20054;-74
2023/04/05 06:37:30;;;;;;;1.58;0.80;;;;;;;-1.60;75.14;98085.88;5010302;28;20497;-74
2023/04/05 06:39:59;;;;;;;0.65;0.65;;;;;;;-1.52;74.98;98090.56;5008133;28;20054;-74
2023/04/05 06:42:26;;;;;;;0.47;0.47;;;;;;;-1.52;74.45;98077.50;5008997;28;20069;-77
2023/04/05 06:44:59;;;;;;;0.82;0.82;;;;;;;-1.39;74.37;98080.09;5009822;28;20038;-76
2023/04/05 06:47:28;;;;;;;1.00;0.90;;;;;;;-1.27;74.05;98084.44;5002180;28;20401;-75
2023/04/05 06:49:56;;;;;;;1.23;0.75;;;;;;;-1.14;73.88;98083.44;5006833;28;20046;-75
2023/04/05 06:52:23;;;;;;;0.85;0.82;;;;;;;-1.00;73.27;98079.00;5004709;28;20104;-75
2023/04/05 06:54:51;;;;;;;0.82;0.73;;;;;;;-0.99;73.31;98083.31;5008009;28;20509;-74
2023/04/05 06:57:18;;;;;;;0.90;0.80;;;;;;;-0.94;73.21;98083.81;5010022;28;20054;-74
2023/04/05 06:59:46;;;;;;;1.08;0.60;;;;;;;-0.78;72.77;98085.22;5011962;28;20046;-74
2023/04/05 07:02:13;;;;;;;0.85;0.80;;;;;;;-0.66;72.08;98083.47;5008521;28;20042;-76
2023/04/05 07:04:43;;;;;;;0.73;0.73;;;;;;;-0.68;71.67;98087.16;5006766;28;20558;-75
2023/04/05 07:07:10;;;;;;;0.80;0.80;;;;;;;-0.59;71.98;98078.59;5008072;28;20066;-78
2023/04/05 07:09:39;;;;;;;0.77;0.55;;;;;;;-0.39;70.98;98086.66;5005838;28;20065;-75
2023/04/05 07:12:07;;;;;;;0.68;0.68;;;;;;;-0.45;70.81;98081.06;5045955;22;20087;-71
2023/04/05 07:14:36;;;;;;;0.52;0.52;;;;;;;-0.42;70.38;98081.66;5040773;28;20045;-72
2023/04/05 07:17:05;;;;;;;0.45;0.45;;;;;;;-0.30;70.35;98087.75;5039622;28;20059;-72
2023/04/05 07:19:33;;;;;;;0.47;0.47;;;;;;;-0.27;69.75;98086.69;5042301;28;20094;-71
2023/04/05 07:22:02;;;;;;;0.50;0.50;;;;;;;-0.18;69.66;98076.34;5041519;28;20045;-72
2023/04/05 07:24:30;;;;;;;0.60;0.52;;;;;;;-0.13;69.65;98066.38;5037149;28;20063;-72
2023/04/05 07:26:58;;;;;;;0.40;0.40;;;;;;;-0.12;69.60;98065.41;5039716;28;20041;-72
2023/04/05 07:29:25;;;;;;;0.47;0.47;;;;;;;-0.10;68.13;98067.91;5040924;28;20092;-72
2023/04/05 07:31:53;;;;;;;0.40;0.38;;;;;;;0.00;68.54;98071.53;5040556;28;20606;-71
2023/04/05 07:34:20;;;;;;;1.08;1.08;;;;;;;0.02;68.35;98064.34;5039867;28;20603;-71
2023/04/05 07:36:49;;;;;;;0.63;0.63;;;;;;;0.13;68.09;98072.22;5038587;28;20045;-72
2023/04/05 07:39:18;;;;;;;0.35;0.35;;;;;;;0.20;68.35;98062.94;5040445;28;20049;-72
2023/04/05 07:41:46;;;;;;;0.50;0.50;;;;;;;0.26;68.30;98067.72;5038577;28;20554;-71
2023/04/05 07:44:14;;;;;;;0.35;0.35;;;;;;;0.40;69.34;98063.19;5037760;28;20052;-72
2023/04/05 07:46:43;;;;;;;0.60;0.60;;;;;;;0.56;68.42;98059.22;5037209;28;20045;-72
2023/04/05 07:49:14;;;;;;;0.52;0.52;;;;;;;0.66;66.97;98048.81;5033051;28;20044;-72
2023/04/05 07:51:42;;;;;;;0.52;0.52;;;;;;;0.81;64.93;98047.63;5036983;28;20447;-72
2023/04/05 07:54:10;;;;;;;0.55;0.55;;;;;;;0.87;63.45;98047.13;5037495;28;20044;-72
2023/04/05 07:56:39;;;;;;;0.77;0.68;;;;;;;1.03;63.12;98052.00;5038645;28;20037;-71
2023/04/05 07:59:07;;;;;;;0.50;0.50;;;;;;;1.16;62.86;98051.81;5038583;28;20045;-72
2023/04/05 08:01:34;;;;;;;0.40;0.40;;;;;;;1.24;59.24;98059.94;5039097;28;20053;-72
2023/04/05 08:04:02;;;;;;;0.30;0.30;;;;;;;1.40;58.38;98062.97;5036940;28;20060;-71
2023/04/05 08:06:30;;;;;;;0.45;0.45;;;;;;;1.51;57.39;98057.66;5036689;28;20041;-72
2023/04/05 08:08:57;;;;;;;0.77;0.47;;;;;;;1.56;56.30;98047.56;5038807;28;20092;-71
2023/04/05 08:11:25;;;;;;;0.50;0.50;;;;;;;1.64;57.00;98047.78;5037881;28;20053;-71
2023/04/05 08:13:55;;;;;;;0.70;0.55;;;;;;;1.87;57.68;98047.66;5038197;28;20553;-71
2023/04/05 08:16:23;;;;;;;0.50;0.50;;;;;;;1.96;56.31;98054.78;5039599;28;20091;-72
2023/04/05 08:18:50;;;;;;;0.60;0.60;;;;;;;2.09;57.20;98056.22;5039184;28;20565;-71
2023/04/05 08:21:18;;;;;;;0.55;0.55;;;;;;;2.13;56.20;98049.75;5036144;28;20045;-72
2023/04/05 08:23:45;;;;;;;2.53;0.40;;;;;;;2.27;54.07;98050.38;5038094;28;20496;-71
2023/04/05 08:26:13;;;;;;;0.40;0.40;;;;;;;2.32;52.28;98053.44;5038002;28;20034;-71
2023/04/05 08:28:40;;;;;;;0.57;0.57;;;;;;;2.43;52.66;98048.91;5039761;28;20412;-71
2023/04/05 08:31:09;;;;;;;0.30;0.30;;;;;;;2.65;52.66;98054.97;5039608;28;20106;-71
2023/04/05 08:33:40;;;;;;;0.65;0.60;;;;;;;2.82;53.06;98051.66;5038941;28;20056;-71
2023/04/05 08:36:08;;;;;;;0.40;0.40;;;;;;;3.02;50.22;98040.19;5037868;28;20065;-71
2023/04/05 08:38:36;;;;;;;0.20;0.20;;;;;;;3.21;47.58;98028.88;5039090;28;20048;-71
2023/04/05 08:41:07;;;;;;;0.50;0.50;;;;;;;3.37;49.38;98031.78;5039846;28;20106;-71
2023/04/05 08:43:43;;;;;;;0.47;0.47;;;;;;;3.52;46.92;98024.28;5038536;28;20041;-72
2023/04/05 08:46:14;;;;;;;0.40;0.40;;;;;;;3.35;46.31;98030.25;5038414;28;20610;-72
2023/04/05 08:48:44;;;;;;;0.35;0.35;;;;;;;3.32;47.08;98036.66;5038629;28;20033;-71
2023/04/05 08:51:12;;;;;;;0.63;0.45;;;;;;;3.13;46.39;98034.81;5036138;28;20046;-71
2023/04/05 08:53:40;;;;;;;0.50;0.50;;;;;;;3.10;46.10;98027.19;5037017;28;20099;-71
2023/04/05 08:56:08;;;;;;;0.60;0.55;;;;;;;3.25;47.11;98041.63;5038260;28;20103;-72
2023/04/05 08:58:37;;;;;;;0.40;0.40;;;;;;;3.40;45.06;98030.66;5039895;28;20102;-72
2023/04/05 09:01:05;;;;;;;0.52;0.52;;;;;;;3.35;45.14;98038.16;5039649;28;20107;-71
2023/04/05 09:03:36;;;;;;;0.75;0.50;;;;;;;3.41;45.18;98038.44;5037804;28;20041;-71
2023/04/05 09:06:07;;;;;;;0.30;0.30;;;;;;;3.40;44.01;98033.31;5039855;28;20045;-71
2023/04/05 09:08:35;;;;;;;0.57;0.47;;;;;;;3.33;43.98;98033.84;5040045;28;20525;-71
2023/04/05 09:11:02;;;;;;;0.50;0.40;;;;;;;3.61;45.50;98031.34;5039577;28;20064;-72
2023/04/05 09:13:30;;;;;;;0.50;0.50;;;;;;;3.88;44.56;98030.63;5036801;28;20049;-71
2023/04/05 09:16:01;;;;;;;0.50;0.50;;;;;;;4.19;45.00;98026.78;5037877;28;20080;-72
2023/04/05 09:18:28;;;;;;;0.32;0.30;;;;;;;4.27;43.16;98028.69;5036987;28;20102;-71
2023/04/05 09:21:02;;;;;;;0.50;0.50;;;;;;;3.99;42.71;98031.28;5038433;28;20068;-71
2023/04/05 09:23:30;;;;;;;0.75;0.75;;;;;;;3.66;43.44;98023.84;5034535;28;20558;-71
2023/04/05 09:25:57;;;;;;;0.82;0.57;;;;;;;3.80;43.77;98025.22;5038029;28;20053;-71
2023/04/05 09:28:40;;;;;;;0.40;0.40;;;;;;;4.10;44.84;98024.16;5037667;28;20044;-71
2023/04/05 09:31:07;;;;;;;0.73;0.50;;;;;;;4.33;43.87;98025.50;5038768;28;20037;-71
2023/04/05 09:33:35;;;;;;;0.50;0.50;;;;;;;4.19;43.08;98023.31;5039314;28;20563;-72
2023/04/05 09:36:05;;;;;;;0.63;0.32;;;;;;;4.50;44.15;98024.72;5039464;28;20107;-72
2023/04/05 09:38:42;;;;;;;0.28;0.28;;;;;;;4.04;42.66;98026.44;5037151;28;20040;-71
2023/04/05 09:41:10;;;;;;;0.45;0.40;;;;;;;4.01;43.89;98031.16;5037048;28;20119;-71
2023/04/05 09:43:39;;;;;;;0.47;0.40;;;;;;;4.17;44.02;98026.09;5035183;28;20135;-72
2023/04/05 09:46:07;;;;;;;0.60;0.60;;;;;;;4.20;43.61;98025.81;5038059;28;20049;-72
2023/04/05 09:48:46;;;;;;;0.47;0.47;;;;;;;4.17;43.07;98025.25;5036903;28;20044;-72
2023/04/05 09:51:15;;;;;;;0.60;0.60;;;;;;;4.25;43.26;98013.00;5038730;28;20049;-71
2023/04/05 09:53:59;;;;;;;0.40;0.40;;;;;;;3.79;42.75;98024.38;5038236;28;20052;-72
2023/04/05 09:56:27;;;;;;;0.40;0.40;;;;;;;3.79;43.17;98015.63;5038534;28;20116;-71
2023/04/05 09:59:00;;;;;;;0.50;0.50;;;;;;;4.13;43.44;98019.44;5039884;28;20041;-71
2023/04/05 10:01:28;;;;;;;0.52;0.52;;;;;;;4.43;42.96;98010.44;5038505;28;20129;-71
2023/04/05 10:03:57;;;;;;;0.40;0.40;;;;;;;4.64;42.63;98013.66;5036644;28;20042;-71
2023/04/05 10:06:34;;;;;;;0.40;0.38;;;;;;;4.98;42.78;98007.78;5038598;28;20056;-71
2023/04/05 10:09:06;;;;;;;0.50;0.50;;;;;;;5.13;43.15;98000.97;5042488;28;21054;-71
2023/04/05 10:11:34;;;;;;;0.40;0.40;;;;;;;5.15;41.88;98004.31;5040507;28;20048;-71
2023/04/05 10:14:04;;;;;;;0.30;0.30;;;;;;;5.28;42.75;98003.94;5039767;28;20043;-71
2023/04/05 10:16:34;;;;;;;1.02;1.02;;;;;;;5.30;42.10;98005.44;5042400;28;20381;-71
2023/04/05 10:19:05;;;;;;;0.30;0.30;;;;;;;5.31;42.13;98008.91;5041839;28;20048;-71
2023/04/05 10:21:36;;;;;;;0.40;0.40;;;;;;;5.26;41.34;98004.09;5040965;28;20095;-71
2023/04/05 10:24:08;;;;;;;0.28;0.28;;;;;;;5.34;41.72;98008.59;5041458;28;20048;-71
2023/04/05 10:26:41;;;;;;;0.40;0.40;;;;;;;5.41;41.85;98009.66;5042908;28;20565;-71
2023/04/05 10:29:09;;;;;;;;;;;;;;;5.41;41.54;97999.91;5042679;28;20094;-72
2023/04/05 10:31:42;;;;;;;0.40;0.40;;;;;;;5.34;40.89;98003.31;5037856;28;19921;-71
2023/04/05 10:34:15;;;;;;;0.40;0.40;;;;;;;5.05;41.08;98003.53;5041578;28;20511;-70
2023/04/05 10:36:50;;;;;;;0.45;0.28;;;;;;;5.25;41.67;98001.59;5047882;28;20055;-71
2023/04/05 10:39:28;;;;;;;0.30;0.30;;;;;;;5.29;40.45;97998.50;5047993;28;20049;-71
2023/04/05 10:42:00;;;;;;;0.43;0.43;;;;;;;5.35;40.98;97989.09;5050261;28;20102;-71
2023/04/05 10:44:30;;;;;;;0.40;0.40;;;;;;;5.57;40.99;97993.94;5046443;28;20045;-71
2023/04/05 10:46:58;;;;;;;0.60;0.60;;;;;;;5.58;40.93;97992.13;5042753;28;20080;-71
2023/04/05 10:49:32;;;;;;;0.50;0.50;;;;;;;5.65;40.59;97991.34;5047029;28;20056;-71
2023/04/05 10:52:02;;;;;;;0.30;0.30;;;;;;;5.72;40.43;97995.03;5048274;28;20045;-72
2023/04/05 10:54:32;;;;;;;0.35;0.35;;;;;;;5.88;40.33;97989.88;5052583;28;20049;-71
2023/04/05 10:57:01;;;;;;;0.40;0.40;;;;;;;6.13;39.96;97992.66;5053946;28;20408;-71
2023/04/05 10:59:29;;;;;;;0.40;0.40;;;;;;;6.31;39.75;97997.94;5050045;28;20539;-71
2023/04/05 11:01:57;;;;;;;0.43;0.43;;;;;;;6.34;39.12;97994.94;5040285;28;20151;-71
2023/04/05 11:04:25;;;;;;;0.30;0.30;;;;;;;6.71;38.23;97998.09;5042653;28;20060;-71
2023/04/05 11:07:14;;;;;;;0.30;0.30;;;;;;;7.19;36.63;97994.75;5040436;28;20041;-71
2023/04/05 11:09:51;;;;;;;0.32;0.32;;;;;;;7.41;36.80;97982.66;5041402;28;20679;-71
2023/04/05 11:12:19;;;;;;;0.20;0.20;;;;;;;7.49;36.41;97974.69;5040146;28;20096;-71
2023/04/05 11:14:46;;;;;;;0.63;0.45;;;;;;;7.56;36.74;97978.38;5041855;28;20059;-71
2023/04/05 11:17:24;;;;;;;0.45;0.45;;;;;;;7.55;37.50;97975.88;5040706;28;20565;-71
2023/04/05 11:20:02;;;;;;;0.50;0.50;;;;;;;7.50;36.70;97973.69;5042695;28;20099;-72
2023/04/05 11:22:31;;;;;;;0.88;0.40;;;;;;;7.72;36.84;97967.72;5040796;28;20098;-72
2023/04/05 11:25:01;;;;;;;0.20;0.20;;;;;;;7.18;37.48;97971.00;5040097;28;20053;-72
2023/04/05 11:27:30;;;;;;;0.20;0.20;;;;;;;6.56;37.69;97958.09;5038389;28;20044;-71
2023/04/05 11:29:58;;;;;;;0.30;0.30;;;;;;;6.99;38.03;97965.00;5038835;28;20678;-71
2023/04/05 11:32:38;;;;;;;0.50;0.50;;;;;;;7.26;37.18;97965.75;5041261;28;20060;-71
2023/04/05 11:35:07;;;;;;;0.70;0.70;;;;;;;7.54;37.14;97953.78;5040926;28;20427;-72
2023/04/05 11:37:56;;;;;;;0.43;0.43;;;;;;;7.83;36.34;97952.44;5040417;28;20099;-72
2023/04/05 11:40:24;;;;;;;0.40;0.32;;;;;;;7.99;36.01;97950.56;5040788;28;20052;-71
2023/04/05 11:42:59;;;;;;;0.30;0.30;;;;;;;8.33;36.15;97958.31;5036411;28;20049;-71
2023/04/05 11:45:27;;;;;;;0.38;0.38;;;;;;;8.43;36.08;97953.63;5039317;28;20068;-71
2023/04/05 11:47:59;;;;;;;0.50;0.40;;;;;;;8.64;35.15;97942.38;5039280;28;20134;-72
2023/04/05 11:50:28;;;;;;;0.68;0.68;;;;;;;8.90;35.50;97943.94;5039668;28;20451;-71
2023/04/05 11:53:10;;;;;;;0.30;0.30;;;;;;;8.66;34.78;97936.91;5040894;28;20562;-71